Time;durP1;ratioP1;P1;durP2;ratioP2;P2;SDS_P1;SDS_P2;PMS_P1;PMS_P2;Temp;Humidity;BMP_temperature;BMP_pressure;BME280_temperature;BME280_humidity;BME280_pressure;Samples;Min_cycle;Max_cycle;Signal;HPM_P1;HPM_P2
2022/05/02 00:02:14;;;;;;;11.57;6.95;;;;;;;;;;6188659;23;20453;-83
2022/05/02 00:04:40;;;;;;;10.80;7.22;;;;;;;;;;6215506;23;20009;-83
2022/05/02 00:07:06;;;;;;;11.40;7.18;;;;;;;;;;6163703;23;20059;-83
2022/05/02 00:09:32;;;;;;;10.82;7.57;;;;;;;;;;6163931;23;20012;-83
2022/05/02 00:11:58;;;;;;;10.68;7.28;;;;;;;;;;6188361;23;20016;-83
2022/05/02 00:14:24;;;;;;;10.15;6.40;;;;;;;;;;6188937;23;20020;-83
2022/05/02 00:16:50;;;;;;;12.32;7.65;;;;;;;;;;6215280;23;20008;-83
2022/05/02 00:19:16;;;;;;;10.73;7.03;;;;;;;;;;6163940;23;20031;-83
2022/05/02 00:21:42;;;;;;;11.90;7.45;;;;;;;;;;6188369;23;20450;-83
2022/05/02 00:24:09;;;;;;;9.88;7.63;;;;;;;;;;6188759;23;20099;-83
2022/05/02 00:26:35;;;;;;;13.90;8.20;;;;;;;;;;6184445;23;20095;-83
2022/05/02 00:29:01;;;;;;;12.07;7.60;;;;;;;;;;6134301;23;20017;-83
2022/05/02 00:31:27;;;;;;;10.55;7.43;;;;;;;;;;6158703;23;20013;-83
2022/05/02 00:33:53;;;;;;;11.65;7.38;;;;;;;;;;6158959;23;20028;-83
2022/05/02 00:36:19;;;;;;;10.95;7.70;;;;;;;;;;6158423;23;20025;-84
2022/05/02 00:38:45;;;;;;;11.95;7.80;;;;;;;;;;6134409;23;20072;-83
2022/05/02 00:41:11;;;;;;;13.10;7.40;;;;;;;;;;6158563;23;20017;-83
2022/05/02 00:43:39;;;;;;;14.13;7.72;;;;;;;;;;6158709;23;20057;-83
2022/05/02 00:46:16;;;;;;;11.25;7.63;;;;;;;;;;6185322;23;20362;-84
2022/05/02 00:48:42;;;;;;;11.13;7.22;;;;;;;;;;6110160;23;20013;-83
2022/05/02 00:51:08;;;;;;;12.95;7.55;;;;;;;;;;6158703;23;20016;-85
2022/05/02 00:53:34;;;;;;;11.73;7.57;;;;;;;;;;6158731;23;20049;-83
2022/05/02 00:56:00;;;;;;;9.98;7.00;;;;;;;;;;6158811;23;20013;-83
2022/05/02 00:58:27;;;;;;;9.45;6.43;;;;;;;;;;6185029;23;20013;-83
2022/05/02 01:00:52;;;;;;;8.02;6.20;;;;;;;;;;6184950;23;20458;-83
2022/05/02 01:03:18;;;;;;;12.13;7.05;;;;;;;;;;6158290;23;20028;-83
2022/05/02 01:08:33;;;;;;;12.00;7.28;;;;;;;;;;6158104;23;20025;-83
2022/05/02 01:10:59;;;;;;;10.95;7.05;;;;;;;;;;6158796;23;20021;-83
2022/05/02 01:13:31;;;;;;;10.20;7.47;;;;;;;;;;6158393;23;20024;-83
2022/05/02 01:15:57;;;;;;;11.38;7.00;;;;;;;;;;6158677;23;20088;-83
2022/05/02 01:18:23;;;;;;;11.00;6.70;;;;;;;;;;6133785;23;20529;-83
2022/05/02 01:20:49;;;;;;;11.55;7.57;;;;;;;;;;6158452;23;20036;-83
2022/05/02 01:23:16;;;;;;;10.00;7.35;;;;;;;;;;6158310;23;20016;-83
2022/05/02 01:25:42;;;;;;;11.10;7.93;;;;;;;;;;6158599;23;20025;-83
2022/05/02 01:28:11;;;;;;;12.02;7.85;;;;;;;;;;6184226;23;20073;-83
2022/05/02 01:30:37;;;;;;;12.07;8.45;;;;;;;;;;6133993;23;20447;-83
2022/05/02 01:33:03;;;;;;;11.60;8.27;;;;;;;;;;6158199;23;20020;-83
2022/05/02 01:35:29;;;;;;;12.68;8.18;;;;;;;;;;6158516;23;20017;-83
2022/05/02 01:37:55;;;;;;;12.90;8.63;;;;;;;;;;6158166;23;20017;-83
2022/05/02 01:40:21;;;;;;;11.50;8.77;;;;;;;;;;6158590;23;20067;-83
2022/05/02 01:42:47;;;;;;;14.27;9.48;;;;;;;;;;6158102;23;20048;-83
2022/05/02 01:45:13;;;;;;;12.05;8.93;;;;;;;;;;6134010;23;20567;-83
2022/05/02 01:47:39;;;;;;;14.00;8.38;;;;;;;;;;6133565;23;20028;-83
2022/05/02 01:50:05;;;;;;;12.43;8.18;;;;;;;;;;6158264;23;20017;-83
2022/05/02 01:52:31;;;;;;;12.05;8.00;;;;;;;;;;6158153;23;20084;-83
2022/05/02 01:54:57;;;;;;;11.32;8.18;;;;;;;;;;6158516;23;20454;-84
2022/05/02 01:57:23;;;;;;;13.50;8.48;;;;;;;;;;6158035;23;20308;-83
2022/05/02 01:59:49;;;;;;;13.77;8.52;;;;;;;;;;6158381;23;20021;-83
2022/05/02 02:02:14;;;;;;;13.73;8.88;;;;;;;;;;6158105;23;20021;-83
2022/05/02 02:07:25;;;;;;;12.68;8.40;;;;;;;;;;6157973;23;20048;-83
2022/05/02 02:09:51;;;;;;;12.98;8.48;;;;;;;;;;6158300;23;20462;-83
2022/05/02 02:12:18;;;;;;;14.55;8.82;;;;;;;;;;6158083;23;20017;-83
2022/05/02 02:14:44;;;;;;;13.88;8.45;;;;;;;;;;6158325;23;20091;-83
2022/05/02 02:17:10;;;;;;;14.85;8.20;;;;;;;;;;6157835;23;20044;-83
2022/05/02 02:19:36;;;;;;;12.77;8.30;;;;;;;;;;6133928;23;20024;-83
2022/05/02 02:22:17;;;;;;;11.45;8.38;;;;;;;;;;6159605;23;20013;-83
2022/05/02 02:24:47;;;;;;;11.65;7.97;;;;;;;;;;6135635;23;20013;-83
2022/05/02 02:27:13;;;;;;;13.32;8.35;;;;;;;;;;6170637;23;20434;-83
2022/05/02 02:29:39;;;;;;;12.32;7.90;;;;;;;;;;6189587;23;20448;-83
2022/05/02 02:32:05;;;;;;;11.55;8.70;;;;;;;;;;6216631;23;20036;-83
2022/05/02 02:34:31;;;;;;;11.40;7.65;;;;;;;;;;6189558;23;20024;-83
2022/05/02 02:36:57;;;;;;;12.13;7.82;;;;;;;;;;6189638;23;20014;-83
2022/05/02 02:39:23;;;;;;;11.15;7.20;;;;;;;;;;6189581;23;20024;-83
2022/05/02 02:41:49;;;;;;;13.73;7.85;;;;;;;;;;6189513;23;20020;-83
2022/05/02 02:44:15;;;;;;;11.35;7.53;;;;;;;;;;6189459;23;20024;-83
2022/05/02 02:46:41;;;;;;;11.95;7.25;;;;;;;;;;6216359;23;20210;-83
2022/05/02 02:49:07;;;;;;;12.68;8.02;;;;;;;;;;6189296;23;20013;-83
2022/05/02 02:51:33;;;;;;;12.00;7.75;;;;;;;;;;6189464;23;20035;-83
2022/05/02 02:53:59;;;;;;;11.02;6.90;;;;;;;;;;6189350;23;20091;-83
2022/05/02 02:56:25;;;;;;;10.93;8.07;;;;;;;;;;6189346;23;20070;-83
2022/05/02 02:58:51;;;;;;;10.43;7.78;;;;;;;;;;6189158;23;20029;-83
2022/05/02 03:01:17;;;;;;;13.00;8.60;;;;;;;;;;6189366;23;20035;-83
2022/05/02 03:03:43;;;;;;;12.15;8.38;;;;;;;;;;6189160;23;20028;-83
2022/05/02 03:06:09;;;;;;;12.90;8.68;;;;;;;;;;6189275;23;20027;-83
2022/05/02 03:08:38;;;;;;;11.15;8.32;;;;;;;;;;6188958;23;20012;-84
2022/05/02 03:11:05;;;;;;;12.57;7.63;;;;;;;;;;6189401;23;20017;-84
2022/05/02 03:13:31;;;;;;;13.68;8.98;;;;;;;;;;6189059;23;20442;-84
2022/05/02 03:15:57;;;;;;;13.38;9.55;;;;;;;;;;6216280;23;20084;-84
2022/05/02 03:18:23;;;;;;;12.43;9.63;;;;;;;;;;6189055;23;20375;-84
2022/05/02 03:20:49;;;;;;;14.02;9.38;;;;;;;;;;6189273;23;20087;-84
2022/05/02 03:23:15;;;;;;;13.57;9.15;;;;;;;;;;6188990;23;20040;-84
2022/05/02 03:25:41;;;;;;;12.35;9.20;;;;;;;;;;6189308;23;20378;-84
2022/05/02 03:28:07;;;;;;;16.33;9.38;;;;;;;;;;6188613;23;20102;-84
2022/05/02 03:30:33;;;;;;;12.07;8.98;;;;;;;;;;6189179;23;20021;-84
2022/05/02 03:32:59;;;;;;;11.85;8.82;;;;;;;;;;6188279;23;20345;-84
2022/05/02 03:35:28;;;;;;;14.25;9.35;;;;;;;;;;6216138;23;20009;-83
2022/05/02 03:37:54;;;;;;;11.80;8.55;;;;;;;;;;6215669;23;20080;-83
2022/05/02 03:40:20;;;;;;;13.18;9.00;;;;;;;;;;6188995;23;20445;-83
2022/05/02 03:42:46;;;;;;;12.45;8.85;;;;;;;;;;6189040;23;20070;-83
2022/05/02 03:45:12;;;;;;;13.50;9.20;;;;;;;;;;6215518;23;20299;-83
2022/05/02 03:47:38;;;;;;;14.77;10.23;;;;;;;;;;6188940;23;20453;-83
2022/05/02 03:50:04;;;;;;;14.80;9.88;;;;;;;;;;6188342;23;20044;-83
2022/05/02 03:52:30;;;;;;;17.90;11.20;;;;;;;;;;6188795;23;20020;-84
2022/05/02 03:54:57;;;;;;;14.15;9.95;;;;;;;;;;6188719;23;20413;-83
2022/05/02 03:57:23;;;;;;;13.98;10.48;;;;;;;;;;6188763;23;20124;-83
2022/05/02 03:59:49;;;;;;;15.18;10.50;;;;;;;;;;6188650;23;20083;-83
2022/05/02 04:02:15;;;;;;;13.68;9.88;;;;;;;;;;6215741;23;20012;-83
2022/05/02 04:04:41;;;;;;;16.27;10.73;;;;;;;;;;6188633;23;20034;-84
2022/05/02 04:07:07;;;;;;;13.77;9.73;;;;;;;;;;6188773;23;20082;-83
2022/05/02 04:09:33;;;;;;;14.18;10.20;;;;;;;;;;6163673;23;20450;-83
2022/05/02 04:11:59;;;;;;;14.50;10.48;;;;;;;;;;6188716;23;20353;-83
2022/05/02 04:14:25;;;;;;;18.55;11.25;;;;;;;;;;6188594;23;20058;-83
2022/05/02 04:16:51;;;;;;;15.00;10.60;;;;;;;;;;6188704;23;20012;-84
2022/05/02 04:19:17;;;;;;;17.23;12.00;;;;;;;;;;6188477;23;20022;-84
2022/05/02 04:21:43;;;;;;;13.18;10.63;;;;;;;;;;6188515;23;20019;-84
2022/05/02 04:24:09;;;;;;;19.52;11.55;;;;;;;;;;6188536;23;20020;-84
2022/05/02 04:26:35;;;;;;;17.23;12.20;;;;;;;;;;6184818;23;20020;-84
2022/05/02 04:29:01;;;;;;;16.05;11.30;;;;;;;;;;6185490;23;20339;-84
2022/05/02 04:31:27;;;;;;;14.95;11.30;;;;;;;;;;6185889;23;20013;-84
2022/05/02 04:33:53;;;;;;;14.90;11.10;;;;;;;;;;6158693;23;20024;-84
2022/05/02 04:36:19;;;;;;;13.80;11.48;;;;;;;;;;6158681;23;20013;-84
2022/05/02 04:38:46;;;;;;;16.80;11.75;;;;;;;;;;6184920;23;20025;-85
2022/05/02 04:41:14;;;;;;;14.55;10.90;;;;;;;;;;6158959;23;20056;-84
2022/05/02 04:43:41;;;;;;;16.05;10.75;;;;;;;;;;6158813;23;20009;-84
2022/05/02 04:46:07;;;;;;;16.10;11.48;;;;;;;;;;6158855;23;20090;-84
2022/05/02 04:48:33;;;;;;;18.58;10.02;;;;;;;;;;6158171;23;20017;-84
2022/05/02 04:50:59;;;;;;;13.20;10.40;;;;;;;;;;6158768;23;20422;-85
2022/05/02 04:53:25;;;;;;;14.60;10.85;;;;;;;;;;6158618;23;20013;-84
2022/05/02 04:55:51;;;;;;;13.68;10.70;;;;;;;;;;6185237;23;20076;-85
2022/05/02 04:58:17;;;;;;;15.02;10.75;;;;;;;;;;6157844;23;20013;-84
2022/05/02 05:00:43;;;;;;;16.90;11.43;;;;;;;;;;6182349;23;20071;-84
2022/05/02 05:03:09;;;;;;;14.75;11.35;;;;;;;;;;6155802;23;20451;-84
2022/05/02 05:05:35;;;;;;;16.67;11.43;;;;;;;;;;6155877;23;20463;-83
2022/05/02 05:08:01;;;;;;;14.90;11.00;;;;;;;;;;6155953;23;20015;-83
2022/05/02 05:10:27;;;;;;;15.95;11.20;;;;;;;;;;6155753;23;20374;-83
2022/05/02 05:13:06;;;;;;;19.20;11.85;;;;;;;;;;6156165;23;20087;-87
2022/05/02 05:18:35;;;;;;;15.45;11.23;;;;;;;;;;6155880;23;20048;-84
2022/05/02 05:21:06;;;;;;;16.38;12.20;;;;;;;;;;6182212;23;20481;-85
2022/05/02 05:23:38;;;;;;;16.08;12.38;;;;;;;;;;6182638;23;20027;-84
2022/05/02 05:26:16;;;;;;;16.77;12.25;;;;;;;;;;6155838;23;20020;-87
2022/05/02 05:28:50;;;;;;;15.82;12.68;;;;;;;;;;6131048;23;20021;-85
2022/05/02 05:31:23;;;;;;;18.77;12.82;;;;;;;;;;6155873;23;20096;-85
2022/05/02 05:33:55;;;;;;;14.18;11.48;;;;;;;;;;6156005;23;20013;-85
2022/05/02 05:36:40;;;;;;;18.48;11.70;;;;;;;;;;6155600;23;20084;-84
2022/05/02 05:39:07;;;;;;;16.63;12.80;;;;;;;;;;6131310;23;20017;-85
2022/05/02 05:41:53;;;;;;;16.08;12.07;;;;;;;;;;6155709;23;20017;-84
2022/05/02 05:44:19;;;;;;;;;;;;;;;;;;6131522;23;20039;-85
2022/05/02 05:46:56;;;;;;;15.88;11.57;;;;;;;;;;6155676;23;20238;-84
2022/05/02 05:49:47;;;;;;;18.27;12.63;;;;;;;;;;6130967;23;20017;-84
2022/05/02 05:52:17;;;;;;;19.08;12.98;;;;;;;;;;6131012;23;20020;-85
2022/05/02 05:54:59;;;;;;;16.33;12.80;;;;;;;;;;6155627;23;20013;-84
2022/05/02 05:57:34;;;;;;;15.95;12.18;;;;;;;;;;6157666;23;20052;-84
2022/05/02 06:00:11;;;;;;;15.88;12.60;;;;;;;;;;6157354;23;20021;-85
2022/05/02 06:02:49;;;;;;;19.45;13.73;;;;;;;;;;6132867;23;20072;-83
2022/05/02 06:05:16;;;;;;;17.38;13.23;;;;;;;;;;6157508;23;20017;-85
2022/05/02 06:07:43;;;;;;;17.50;13.40;;;;;;;;;;6157477;23;20347;-84
2022/05/02 06:10:09;;;;;;;17.35;13.57;;;;;;;;;;6157502;23;20031;-85
2022/05/02 06:12:37;;;;;;;20.77;13.32;;;;;;;;;;6157654;23;20047;-84
2022/05/02 06:20:38;;;;;;;18.30;14.60;;;;;;;;;;6157333;23;20021;-85
2022/05/02 06:23:08;;;;;;;16.40;12.35;;;;;;;;;;6157406;23;20087;-84
2022/05/02 06:25:36;;;;;;;15.05;11.73;;;;;;;;;;6157263;23;20017;-84
2022/05/02 06:28:03;;;;;;;18.77;12.98;;;;;;;;;;6178128;23;20517;-85
2022/05/02 06:30:30;;;;;;;14.57;11.90;;;;;;;;;;6186928;23;20353;-84
2022/05/02 06:32:58;;;;;;;16.35;12.95;;;;;;;;;;6187143;23;20040;-85
2022/05/02 06:35:27;;;;;;;18.38;12.55;;;;;;;;;;6186997;23;20404;-84
2022/05/02 06:38:01;;;;;;;16.48;12.95;;;;;;;;;;6187032;23;20391;-83
2022/05/02 06:40:34;;;;;;;14.30;11.23;;;;;;;;;;6187243;23;20078;-84
2022/05/02 06:43:18;;;;;;;14.98;10.82;;;;;;;;;;6187013;23;20048;-84
2022/05/02 06:45:50;;;;;;;14.18;10.73;;;;;;;;;;6186699;23;20341;-85
2022/05/02 06:48:22;;;;;;;15.60;12.02;;;;;;;;;;6161855;23;20016;-83
2022/05/02 06:50:53;;;;;;;15.85;11.73;;;;;;;;;;6186700;23;20016;-83
2022/05/02 06:53:32;;;;;;;13.40;10.07;;;;;;;;;;6213606;23;20016;-85
2022/05/02 06:56:02;;;;;;;11.65;8.23;;;;;;;;;;6213640;23;20319;-84
2022/05/02 06:58:52;;;;;;;12.88;8.77;;;;;;;;;;6186811;23;20158;-83
2022/05/02 07:01:18;;;;;;;12.00;8.73;;;;;;;;;;6186619;23;20020;-84
2022/05/02 07:04:04;;;;;;;14.95;8.70;;;;;;;;;;6187059;23;20027;-84
2022/05/02 07:06:37;;;;;;;11.73;8.48;;;;;;;;;;6112654;23;20100;-84
2022/05/02 07:09:04;;;;;;;11.57;8.88;;;;;;;;;;6186974;23;20020;-84
2022/05/02 07:11:39;;;;;;;10.52;8.40;;;;;;;;;;6186489;23;20119;-84
2022/05/02 07:14:17;;;;;;;10.38;8.38;;;;;;;;;;6162073;23;20009;-84
2022/05/02 07:16:49;;;;;;;13.52;9.00;;;;;;;;;;6186285;23;20017;-83
2022/05/02 07:19:39;;;;;;;13.57;9.02;;;;;;;;;;6161694;23;20020;-84
2022/05/02 07:22:09;;;;;;;12.75;7.32;;;;;;;;;;6186429;23;20028;-84
2022/05/02 07:24:49;;;;;;;9.57;7.00;;;;;;;;;;6161934;23;20016;-84
2022/05/02 07:27:15;;;;;;;9.95;7.10;;;;;;;;;;6186024;23;20096;-84
2022/05/02 07:29:43;;;;;;;11.93;7.68;;;;;;;;;;6186585;23;20021;-84
2022/05/02 07:32:10;;;;;;;14.55;8.88;;;;;;;;;;6186412;23;20017;-84
2022/05/02 07:34:37;;;;;;;13.27;7.57;;;;;;;;;;6161778;23;20012;-84
2022/05/02 07:37:03;;;;;;;10.85;8.00;;;;;;;;;;6213136;23;20032;-85
2022/05/02 07:39:30;;;;;;;11.30;8.05;;;;;;;;;;6161623;23;20023;-84
2022/05/02 07:42:00;;;;;;;10.95;7.75;;;;;;;;;;6186181;23;20023;-85
2022/05/02 07:44:31;;;;;;;11.05;7.22;;;;;;;;;;6162629;23;20050;-84
2022/05/02 07:46:58;;;;;;;10.48;7.97;;;;;;;;;;6215997;23;20023;-83
2022/05/02 07:49:26;;;;;;;11.45;7.47;;;;;;;;;;6189382;23;20048;-83
2022/05/02 07:51:52;;;;;;;15.18;8.13;;;;;;;;;;6188905;23;20017;-84
2022/05/02 07:54:21;;;;;;;11.38;8.00;;;;;;;;;;6215650;23;20102;-83
2022/05/02 07:56:48;;;;;;;12.65;8.00;;;;;;;;;;6163738;23;20091;-84
2022/05/02 07:59:19;;;;;;;13.75;8.07;;;;;;;;;;6189066;23;20083;-83
2022/05/02 08:01:45;;;;;;;13.15;8.95;;;;;;;;;;6188544;23;20385;-83
2022/05/02 08:04:12;;;;;;;12.48;8.10;;;;;;;;;;6188956;23;20020;-84
2022/05/02 08:06:45;;;;;;;12.85;7.95;;;;;;;;;;6188546;23;20028;-84
2022/05/02 08:09:20;;;;;;;12.15;7.55;;;;;;;;;;6215292;23;20472;-84
2022/05/02 08:12:00;;;;;;;10.20;7.45;;;;;;;;;;6188708;23;20016;-84
2022/05/02 08:14:27;;;;;;;12.63;7.60;;;;;;;;;;6189030;23;20012;-87
2022/05/02 08:17:01;;;;;;;13.27;7.70;;;;;;;;;;6188478;23;20540;-84
2022/05/02 08:19:27;;;;;;;13.20;7.65;;;;;;;;;;6188656;23;20019;-84
2022/05/02 08:27:15;;;;;;;11.00;6.90;;;;;;;;;;6163675;23;20095;-84
2022/05/02 08:27:36;;;;;;;12.57;7.28;;;;;;;;;;6188008;23;20021;-85
2022/05/02 08:30:06;;;;;;;19.17;7.70;;;;;;;;;;6188654;23;20020;-83
2022/05/02 08:32:42;;;;;;;13.15;7.45;;;;;;;;;;6188853;23;20042;-84
2022/05/02 08:35:17;;;;;;;10.30;6.57;;;;;;;;;;6189354;23;20013;-84
2022/05/02 08:38:01;;;;;;;11.15;6.95;;;;;;;;;;6163661;23;20047;-84
2022/05/02 08:40:27;;;;;;;10.75;6.82;;;;;;;;;;6188670;23;20088;-84
2022/05/02 08:42:56;;;;;;;13.85;7.35;;;;;;;;;;6188129;23;20334;-84
2022/05/02 08:45:38;;;;;;;13.23;6.93;;;;;;;;;;6188921;23;20070;-84
2022/05/02 08:48:04;;;;;;;10.40;7.20;;;;;;;;;;6188081;23;20323;-84
2022/05/02 08:50:30;;;;;;;10.40;7.28;;;;;;;;;;6163550;23;20022;-84
2022/05/02 08:53:19;;;;;;;12.43;7.38;;;;;;;;;;6188098;23;20012;-83
2022/05/02 08:55:45;;;;;;;11.07;7.53;;;;;;;;;;6169704;23;20016;-83
2022/05/02 08:58:14;;;;;;;11.48;7.00;;;;;;;;;;6187935;23;20342;-82
2022/05/02 09:00:51;;;;;;;14.07;8.07;;;;;;;;;;6188363;23;20062;-83
2022/05/02 09:03:36;;;;;;;12.48;7.72;;;;;;;;;;6214611;23;20016;-83
2022/05/02 09:06:02;;;;;;;14.43;8.38;;;;;;;;;;6188106;23;20087;-85
2022/05/02 09:08:58;;;;;;;11.25;7.40;;;;;;;;;;6188058;23;20445;-82
2022/05/02 09:11:53;;;;;;;11.90;7.70;;;;;;;;;;6214719;23;20358;-83
2022/05/02 09:14:37;;;;;;;12.90;7.78;;;;;;;;;;6083871;23;20098;-83
2022/05/02 09:17:22;;;;;;;10.93;7.53;;;;;;;;;;6163179;23;20395;-83
2022/05/02 09:19:48;;;;;;;11.00;8.02;;;;;;;;;;6214805;23;20091;-83
2022/05/02 09:22:17;;;;;;;12.00;7.45;;;;;;;;;;6188269;23;20458;-86
2022/05/02 09:24:58;;;;;;;12.27;7.50;;;;;;;;;;6188281;23;20016;-84
2022/05/02 09:27:30;;;;;;;11.48;6.75;;;;;;;;;;6187633;23;20021;-83
2022/05/02 09:30:12;;;;;;;11.93;7.10;;;;;;;;;;6215930;23;20047;-82
2022/05/02 09:32:47;;;;;;;11.27;7.63;;;;;;;;;;6190412;23;20012;-82
2022/05/02 09:35:33;;;;;;;10.15;7.15;;;;;;;;;;6216866;23;20013;-82
2022/05/02 09:38:00;;;;;;;9.57;7.07;;;;;;;;;;6189839;23;20020;-83
2022/05/02 09:40:36;;;;;;;11.82;6.68;;;;;;;;;;6216885;23;20095;-85
2022/05/02 09:43:22;;;;;;;7.82;6.35;;;;;;;;;;6189896;23;20492;-83
2022/05/02 09:51:46;;;;;;;9.75;6.15;;;;;;;;;;6216909;23;20070;-83
2022/05/02 09:54:12;;;;;;;8.68;6.20;;;;;;;;;;6216995;23;20032;-83
2022/05/02 09:56:45;;;;;;;11.13;6.60;;;;;;;;;;6189550;23;20438;-83
2022/05/02 09:59:17;;;;;;;8.57;6.80;;;;;;;;;;6216947;23;20012;-83
2022/05/02 10:01:46;;;;;;;9.60;7.10;;;;;;;;;;6186915;23;20016;-84
2022/05/02 10:04:18;;;;;;;9.65;6.47;;;;;;;;;;6190026;23;20386;-83
2022/05/02 10:06:50;;;;;;;11.25;7.38;;;;;;;;;;6189643;23;20023;-83
2022/05/02 10:09:22;;;;;;;9.50;6.32;;;;;;;;;;6189888;23;20091;-82
2022/05/02 10:11:52;;;;;;;9.63;6.65;;;;;;;;;;6189547;23;20019;-82
2022/05/02 10:14:33;;;;;;;10.27;7.13;;;;;;;;;;6189958;23;20083;-82
2022/05/02 10:17:11;;;;;;;9.32;6.35;;;;;;;;;;6189413;23;20017;-83
2022/05/02 10:19:56;;;;;;;11.52;6.65;;;;;;;;;;6165013;23;20341;-83
2022/05/02 10:22:25;;;;;;;10.00;6.07;;;;;;;;;;6189374;23;20469;-84
2022/05/02 10:25:02;;;;;;;8.60;5.90;;;;;;;;;;6190600;23;20330;-84
2022/05/02 10:27:47;;;;;;;12.90;7.38;;;;;;;;;;6174741;23;20080;-84
2022/05/02 10:30:13;;;;;;;9.23;6.78;;;;;;;;;;6159932;23;20024;-85
2022/05/02 10:32:48;;;;;;;10.65;7.25;;;;;;;;;;6159487;23;20016;-84
2022/05/02 10:35:15;;;;;;;11.23;7.25;;;;;;;;;;6159876;23;20020;-84
2022/05/02 10:37:42;;;;;;;9.40;6.95;;;;;;;;;;6159475;23;20013;-85
2022/05/02 10:40:10;;;;;;;9.52;6.68;;;;;;;;;;6159946;23;20079;-84
2022/05/02 10:42:37;;;;;;;10.98;7.30;;;;;;;;;;6159148;23;20067;-86
2022/05/02 10:45:03;;;;;;;8.55;6.90;;;;;;;;;;6159816;23;20024;-85
2022/05/02 10:47:38;;;;;;;13.18;7.30;;;;;;;;;;6159272;23;20017;-84
2022/05/02 10:50:18;;;;;;;10.10;6.93;;;;;;;;;;6159733;23;20020;-85
2022/05/02 10:52:47;;;;;;;10.02;7.20;;;;;;;;;;6186048;23;20092;-85
2022/05/02 10:55:33;;;;;;;10.70;6.65;;;;;;;;;;6160077;23;20009;-85
2022/05/02 10:58:06;;;;;;;10.07;6.60;;;;;;;;;;6158905;23;20024;-83
2022/05/02 11:00:33;;;;;;;9.68;6.90;;;;;;;;;;6159544;23;20021;-85
2022/05/02 11:03:18;;;;;;;13.30;6.63;;;;;;;;;;6134802;23;20346;-83
2022/05/02 11:05:47;;;;;;;13.30;6.78;;;;;;;;;;6133761;23;20048;-83
2022/05/02 11:08:23;;;;;;;11.55;6.72;;;;;;;;;;6134446;23;20043;-84
2022/05/02 11:10:52;;;;;;;9.30;6.60;;;;;;;;;;6159781;23;20454;-85
2022/05/02 11:13:26;;;;;;;9.30;6.40;;;;;;;;;;6159097;23;20013;-85
2022/05/02 11:16:19;;;;;;;10.70;7.32;;;;;;;;;;6159853;23;20013;-84
2022/05/02 11:21:50;;;;;;;12.52;6.90;;;;;;;;;;6159258;23;20021;-84
2022/05/02 11:24:39;;;;;;;9.73;6.72;;;;;;;;;;6159266;23;20451;-84
2022/05/02 11:27:24;;;;;;;10.75;7.47;;;;;;;;;;6168717;23;20244;-84
2022/05/02 11:30:03;;;;;;;11.48;7.00;;;;;;;;;;6189181;23;20043;-85
2022/05/02 11:32:36;;;;;;;10.02;6.78;;;;;;;;;;6164245;23;20020;-85
2022/05/02 11:35:11;;;;;;;9.05;6.82;;;;;;;;;;6164305;23;20334;-84
2022/05/02 11:37:43;;;;;;;13.40;7.35;;;;;;;;;;6188652;23;20016;-84
2022/05/02 11:40:10;;;;;;;12.63;7.30;;;;;;;;;;6215837;23;20332;-83
2022/05/02 11:42:41;;;;;;;11.27;7.00;;;;;;;;;;6188795;23;20052;-84
2022/05/02 11:45:14;;;;;;;10.93;6.90;;;;;;;;;;6189125;23;20009;-82
2022/05/02 11:47:49;;;;;;;15.02;7.10;;;;;;;;;;6188313;23;20313;-82
2022/05/02 11:50:18;;;;;;;9.30;6.55;;;;;;;;;;6215373;23;20489;-84
2022/05/02 11:52:51;;;;;;;10.38;6.88;;;;;;;;;;6163025;23;20065;-85
2022/05/02 11:55:18;;;;;;;11.77;6.85;;;;;;;;;;6189028;23;20024;-83
2022/05/02 11:57:57;;;;;;;11.00;7.32;;;;;;;;;;6188946;23;20013;-82
2022/05/02 12:00:30;;;;;;;10.70;7.13;;;;;;;;;;6164194;23;20016;-83
2022/05/02 12:03:14;;;;;;;11.77;7.07;;;;;;;;;;6215258;23;20063;-83
2022/05/02 12:05:55;;;;;;;10.48;6.40;;;;;;;;;;6215572;23;20449;-83
2022/05/02 12:08:35;;;;;;;9.40;6.43;;;;;;;;;;6214908;23;20460;-84
2022/05/02 12:11:05;;;;;;;8.70;6.10;;;;;;;;;;6188617;23;20458;-83
2022/05/02 12:13:35;;;;;;;10.88;6.38;;;;;;;;;;6215320;23;20012;-84
2022/05/02 12:16:01;;;;;;;10.95;7.03;;;;;;;;;;6187930;23;20013;-82
2022/05/02 12:18:51;;;;;;;9.82;7.32;;;;;;;;;;6188439;23;20091;-84
2022/05/02 12:21:17;;;;;;;9.65;6.38;;;;;;;;;;6196319;23;20024;-83
2022/05/02 12:23:43;;;;;;;9.98;6.40;;;;;;;;;;6188368;23;20016;-84
2022/05/02 12:26:18;;;;;;;10.25;5.82;;;;;;;;;;6162813;23;20536;-82
2022/05/02 12:28:51;;;;;;;9.53;6.33;;;;;;;;;;6133870;23;20017;-83
2022/05/02 12:31:17;;;;;;;9.35;5.72;;;;;;;;;;6158946;23;20016;-84
2022/05/02 12:33:45;;;;;;;11.90;6.95;;;;;;;;;;6184911;23;20036;-84
2022/05/02 12:36:15;;;;;;;8.82;5.70;;;;;;;;;;6158611;23;20020;-84
2022/05/02 12:38:44;;;;;;;11.57;5.97;;;;;;;;;;6133764;23;20024;-83
2022/05/02 12:41:12;;;;;;;8.75;5.85;;;;;;;;;;6185306;23;20067;-84
2022/05/02 12:43:45;;;;;;;8.13;5.57;;;;;;;;;;6158329;23;20386;-83
2022/05/02 12:46:15;;;;;;;10.23;5.75;;;;;;;;;;6158667;23;20016;-83
2022/05/02 12:48:42;;;;;;;10.07;5.20;;;;;;;;;;6159001;23;20340;-83
2022/05/02 12:51:15;;;;;;;9.43;5.03;;;;;;;;;;6159221;23;20307;-83
2022/05/02 12:56:27;;;;;;;8.70;5.70;;;;;;;;;;6158372;23;20427;-83
2022/05/02 13:01:45;;;;;;;8.45;4.70;;;;;;;;;;6158502;23;20099;-83
2022/05/02 13:04:16;;;;;;;9.05;4.90;;;;;;;;;;6158158;23;20055;-83
2022/05/02 13:06:43;;;;;;;9.35;4.90;;;;;;;;;;6157166;23;20021;-83
2022/05/02 13:09:12;;;;;;;7.13;4.65;;;;;;;;;;6184729;23;20055;-83
2022/05/02 13:11:39;;;;;;;8.23;5.10;;;;;;;;;;6158342;23;20335;-86
2022/05/02 13:14:06;;;;;;;7.13;5.15;;;;;;;;;;6133385;23;20095;-84
2022/05/02 13:16:33;;;;;;;8.93;5.32;;;;;;;;;;6158294;23;20016;-84
2022/05/02 13:19:03;;;;;;;9.35;4.80;;;;;;;;;;6158183;23;20095;-84
2022/05/02 13:21:29;;;;;;;8.93;4.55;;;;;;;;;;6133732;23;20088;-83
2022/05/02 13:24:00;;;;;;;9.00;5.32;;;;;;;;;;6156902;23;20020;-83
2022/05/02 13:26:48;;;;;;;8.23;4.93;;;;;;;;;;6157949;23;20093;-83
2022/05/02 13:29:17;;;;;;;10.23;5.10;;;;;;;;;;6158246;23;20013;-85
2022/05/02 13:32:00;;;;;;;8.90;5.30;;;;;;;;;;6158687;23;20024;-82
2022/05/02 13:34:36;;;;;;;8.40;5.50;;;;;;;;;;6158371;23;20013;-83
2022/05/02 13:37:03;;;;;;;9.57;5.43;;;;;;;;;;6184893;23;20013;-82
2022/05/02 13:39:48;;;;;;;7.95;4.50;;;;;;;;;;6158041;23;20098;-83
2022/05/02 13:42:21;;;;;;;7.30;4.78;;;;;;;;;;6133593;23;20013;-83
2022/05/02 13:44:56;;;;;;;8.18;4.70;;;;;;;;;;6158071;23;20439;-83
2022/05/02 13:47:26;;;;;;;7.28;4.68;;;;;;;;;;6158179;23;20021;-83
2022/05/02 13:49:56;;;;;;;7.10;4.45;;;;;;;;;;6184579;23;20017;-82
2022/05/02 13:52:25;;;;;;;7.70;4.53;;;;;;;;;;6158170;23;20056;-83
2022/05/02 13:54:52;;;;;;;14.57;5.07;;;;;;;;;;6184450;23;20013;-83
2022/05/02 13:57:28;;;;;;;10.73;5.10;;;;;;;;;;6184296;23;20446;-84
2022/05/02 13:59:59;;;;;;;22.23;6.22;;;;;;;;;;6133418;23;20017;-84
2022/05/02 14:02:55;;;;;;;10.70;6.70;;;;;;;;;;6158269;23;20017;-83
2022/05/02 14:05:32;;;;;;;11.43;7.20;;;;;;;;;;6133204;23;20027;-83
2022/05/02 14:08:00;;;;;;;11.63;7.57;;;;;;;;;;6157681;23;20021;-84
2022/05/02 14:10:29;;;;;;;9.45;7.15;;;;;;;;;;6184152;23;20084;-86
2022/05/02 14:12:56;;;;;;;12.57;7.30;;;;;;;;;;6184815;23;20037;-83
2022/05/02 14:15:23;;;;;;;9.52;6.25;;;;;;;;;;6158030;23;20387;-83
2022/05/02 14:17:55;;;;;;;11.25;7.72;;;;;;;;;;6134826;23;20525;-83
2022/05/02 14:20:29;;;;;;;10.07;7.60;;;;;;;;;;6159732;23;20021;-83
2022/05/02 14:22:57;;;;;;;13.65;7.88;;;;;;;;;;6159543;23;20513;-84
2022/05/02 14:25:27;;;;;;;13.55;7.93;;;;;;;;;;6184293;23;20021;-83
2022/05/02 14:27:55;;;;;;;13.40;7.75;;;;;;;;;;6178933;23;20394;-84
2022/05/02 14:30:26;;;;;;;16.90;7.88;;;;;;;;;;6215953;23;20335;-83
2022/05/02 14:32:52;;;;;;;12.18;8.48;;;;;;;;;;6189656;23;20389;-83
2022/05/02 14:35:23;;;;;;;11.93;7.55;;;;;;;;;;6189783;23;20013;-83
2022/05/02 14:37:49;;;;;;;13.60;8.30;;;;;;;;;;6189575;23;20012;-84
2022/05/02 14:40:15;;;;;;;11.30;6.95;;;;;;;;;;6189331;23;20331;-84
2022/05/02 14:42:42;;;;;;;11.48;6.82;;;;;;;;;;6215904;23;20381;-84
2022/05/02 14:45:08;;;;;;;11.55;7.47;;;;;;;;;;6164616;23;20024;-83
2022/05/02 14:47:34;;;;;;;11.90;7.38;;;;;;;;;;6164963;23;20442;-83
2022/05/02 14:50:00;;;;;;;9.07;6.63;;;;;;;;;;6189398;23;20671;-83
2022/05/02 14:52:34;;;;;;;9.52;6.43;;;;;;;;;;6189192;23;20373;-82
2022/05/02 14:55:02;;;;;;;9.43;6.40;;;;;;;;;;6189475;23;20339;-83
2022/05/02 14:57:30;;;;;;;9.27;6.45;;;;;;;;;;6189378;23;20016;-83
2022/05/02 14:59:57;;;;;;;9.93;6.25;;;;;;;;;;6164413;23;20139;-82
2022/05/02 15:02:25;;;;;;;11.55;6.78;;;;;;;;;;6189540;23;20020;-83
2022/05/02 15:04:53;;;;;;;10.40;6.30;;;;;;;;;;6189718;23;20066;-84
2022/05/02 15:07:21;;;;;;;10.57;6.57;;;;;;;;;;6189170;23;20019;-83
2022/05/02 15:12:53;;;;;;;12.82;5.60;;;;;;;;;;6216367;23;20048;-83
2022/05/02 15:15:25;;;;;;;11.70;5.63;;;;;;;;;;6189214;23;20335;-83
2022/05/02 15:17:59;;;;;;;9.25;5.50;;;;;;;;;;6163804;23;20035;-84
2022/05/02 15:20:29;;;;;;;11.23;5.00;;;;;;;;;;6189105;23;20091;-84
2022/05/02 15:23:02;;;;;;;7.53;4.60;;;;;;;;;;6187511;23;20473;-85
2022/05/02 15:25:29;;;;;;;10.25;4.90;;;;;;;;;;6189372;23;20020;-84